createdAt,value
2019-03-16T00:01:59.300Z,0.8
2019-03-16T00:04:58.928Z,0.8
2019-03-16T00:07:58.974Z,0.8
2019-03-16T00:10:59.092Z,0.8
2019-03-16T00:13:59.056Z,0.8
2019-03-16T00:16:59.267Z,0.8
2019-03-16T00:19:59.044Z,0.8
2019-03-16T00:22:59.274Z,0.8
2019-03-16T00:25:59.453Z,0.9
2019-03-16T00:28:59.182Z,0.9
2019-03-16T00:32:14.049Z,0.8
2019-03-16T00:34:59.019Z,0.8
2019-03-16T00:37:59.136Z,0.8
2019-03-16T00:40:59.111Z,0.8
2019-03-16T00:43:59.182Z,0.8
2019-03-16T00:46:59.192Z,0.8
2019-03-16T00:49:59.217Z,0.9
2019-03-16T00:52:59.280Z,0.8
2019-03-16T00:55:59.079Z,0.9
2019-03-16T00:58:59.252Z,0.8
2019-03-16T01:01:58.998Z,0.8
2019-03-16T01:04:59.018Z,0.8
2019-03-16T01:07:59.013Z,0.8
2019-03-16T01:10:59.216Z,0.8
2019-03-16T01:13:59.137Z,0.9
2019-03-16T01:16:59.140Z,0.9
2019-03-16T01:19:59.169Z,0.8
2019-03-16T01:22:59.280Z,0.9
2019-03-16T01:25:59.004Z,0.9
2019-03-16T01:28:59.054Z,0.8
2019-03-16T01:31:59.161Z,0.8
2019-03-16T01:34:59.066Z,0.8
2019-03-16T01:37:59.153Z,0.8
2019-03-16T01:40:59.298Z,0.8
2019-03-16T01:43:59.150Z,0.8
2019-03-16T01:46:59.229Z,0.8
2019-03-16T01:49:58.865Z,0.8
2019-03-16T01:52:58.918Z,0.8
2019-03-16T01:55:59.086Z,0.8
2019-03-16T01:58:58.990Z,0.8
2019-03-16T02:01:59.028Z,0.8
2019-03-16T02:04:59.138Z,0.8
2019-03-16T02:07:59.146Z,0.8
2019-03-16T02:10:59.038Z,0.8
2019-03-16T02:13:59.385Z,0.7
2019-03-16T02:16:59.179Z,0.7
2019-03-16T02:19:59.205Z,0.7
2019-03-16T02:22:59.115Z,0.8
2019-03-16T02:25:59.237Z,0.7
2019-03-16T02:28:59.023Z,0.7
2019-03-16T02:31:59.129Z,0.8
2019-03-16T02:34:59.208Z,0.8
2019-03-16T02:37:58.994Z,0.9
2019-03-16T02:40:59.034Z,0.8
2019-03-16T02:43:59.280Z,0.8
2019-03-16T02:46:59.125Z,0.8
2019-03-16T02:49:59.514Z,0.7
2019-03-16T02:52:59.562Z,0.7
2019-03-16T02:55:59.177Z,0.7
2019-03-16T02:58:58.972Z,0.8
2019-03-16T03:01:58.995Z,0.8
2019-03-16T03:04:59.096Z,0.7
2019-03-16T03:07:59.221Z,0.9
2019-03-16T03:11:01.003Z,0.8
2019-03-16T03:13:59.173Z,0.8
2019-03-16T03:16:59.449Z,0.8
2019-03-16T03:19:59.198Z,0.9
2019-03-16T03:22:59.172Z,0.8
2019-03-16T03:25:59.471Z,0.8
2019-03-16T03:28:59.321Z,0.8
2019-03-16T03:31:59.088Z,0.8
2019-03-16T03:34:59.130Z,0.7
2019-03-16T03:37:59.196Z,0.7
2019-03-16T03:41:02.804Z,0.7
2019-03-16T03:43:59.200Z,0.7
2019-03-16T03:46:59.197Z,0.7
2019-03-16T03:49:59.246Z,0.8
2019-03-16T03:52:58.907Z,0.8
2019-03-16T03:55:58.922Z,0.7
2019-03-16T03:58:59.346Z,0.8
2019-03-16T04:01:59.071Z,0.7
2019-03-16T04:04:58.916Z,0.7
2019-03-16T04:07:59.103Z,0.7
2019-03-16T04:10:59.007Z,0.7
2019-03-16T04:13:59.153Z,0.7
2019-03-16T04:16:59.203Z,0.7
2019-03-16T04:19:59.934Z,0.7
2019-03-16T04:22:59.141Z,0.7
2019-03-16T04:25:59.455Z,0.8
2019-03-16T04:28:59.208Z,0.8
2019-03-16T04:31:59.220Z,0.7
2019-03-16T04:34:58.935Z,0.7
2019-03-16T04:37:59.092Z,0.7
2019-03-16T04:40:59.297Z,0.7
2019-03-16T04:43:58.994Z,0.8
2019-03-16T04:46:59.057Z,0.8
2019-03-16T04:49:59.207Z,0.8
2019-03-16T04:52:59.103Z,0.9
2019-03-16T04:55:59.324Z,0.8
2019-03-16T04:58:59.235Z,0.7
2019-03-16T05:01:58.948Z,0.8
2019-03-16T05:04:58.847Z,0.8
2019-03-16T05:07:59.004Z,0.7
2019-03-16T05:10:59.033Z,0.7
2019-03-16T05:13:58.918Z,0.7
2019-03-16T05:16:58.946Z,0.8
2019-03-16T05:19:59.035Z,0.8
2019-03-16T05:22:59.036Z,0.9
2019-03-16T05:25:59.307Z,0.8
2019-03-16T05:28:59.075Z,0.8
2019-03-16T05:31:58.907Z,0.8
2019-03-16T05:34:59.015Z,0.8
2019-03-16T05:37:58.981Z,0.8
2019-03-16T05:40:58.920Z,0.8
2019-03-16T05:43:59.008Z,0.7
2019-03-16T05:46:58.990Z,0.8
2019-03-16T05:49:59.069Z,0.8
2019-03-16T05:52:59.073Z,0.9
2019-03-16T05:55:59.098Z,0.8
2019-03-16T05:58:59.131Z,0.8
2019-03-16T06:01:58.855Z,0.8
2019-03-16T06:05:11.816Z,0.8
2019-03-16T06:07:59.146Z,0.8
2019-03-16T06:10:58.968Z,0.8
2019-03-16T06:13:59.262Z,0.8
2019-03-16T06:16:58.902Z,0.8
2019-03-16T06:19:58.945Z,0.9
2019-03-16T06:22:59.050Z,0.8
2019-03-16T06:25:59.007Z,0.8
2019-03-16T06:28:59.029Z,0.9
2019-03-16T06:31:59.021Z,0.8
2019-03-16T06:34:59.143Z,0.8
2019-03-16T06:37:58.850Z,0.8
2019-03-16T06:40:58.863Z,0.8
2019-03-16T06:43:58.979Z,0.8
2019-03-16T06:46:58.936Z,0.9
2019-03-16T06:49:58.991Z,0.9
2019-03-16T06:52:59.010Z,0.8
2019-03-16T06:55:59.113Z,0.8
2019-03-16T06:58:58.948Z,0.8
2019-03-16T07:01:58.981Z,0.8
2019-03-16T07:04:58.881Z,0.7
2019-03-16T07:07:58.904Z,0.7
2019-03-16T07:10:59.013Z,0.8
2019-03-16T07:13:58.977Z,0.9
2019-03-16T07:17:02.917Z,0.9
2019-03-16T07:19:59.014Z,0.9
2019-03-16T07:22:59.099Z,0.9
2019-03-16T07:25:58.803Z,0.8
2019-03-16T07:28:58.962Z,0.8
2019-03-16T07:31:58.848Z,0.9
2019-03-16T07:34:58.964Z,1
2019-03-16T07:37:58.968Z,0.9
2019-03-16T07:40:58.986Z,0.8
2019-03-16T07:43:58.970Z,0.9
2019-03-16T07:46:59.006Z,0.9
2019-03-16T07:49:59.166Z,0.9
2019-03-16T07:52:59.012Z,0.9
2019-03-16T07:55:59.043Z,0.9
2019-03-16T07:58:59.095Z,0.9
2019-03-16T08:01:59.115Z,1.1
2019-03-16T08:04:58.861Z,1
2019-03-16T08:07:58.877Z,0.9
2019-03-16T08:10:59.181Z,0.9
2019-03-16T08:13:58.849Z,1
2019-03-16T08:16:58.994Z,0.9
2019-03-16T08:19:59.030Z,0.9
2019-03-16T08:22:59.066Z,0.9
2019-03-16T08:25:59.036Z,0.8
2019-03-16T08:28:59.933Z,1
2019-03-16T08:31:58.861Z,0.9
2019-03-16T08:35:01.303Z,0.9
2019-03-16T08:37:59.092Z,1
2019-03-16T08:40:58.860Z,1.2
2019-03-16T08:43:58.966Z,1.1
2019-03-16T08:46:59.073Z,0.9
2019-03-16T08:49:59.105Z,0.9
2019-03-16T08:52:58.719Z,0.9
2019-03-16T08:55:58.852Z,0.8
2019-03-16T08:58:58.986Z,0.9
2019-03-16T09:01:58.998Z,0.9
2019-03-16T09:04:58.999Z,1.1
2019-03-16T09:07:59.061Z,1
2019-03-16T09:10:59.069Z,1
2019-03-16T09:13:58.747Z,1
2019-03-16T09:16:58.964Z,1
2019-03-16T09:19:58.854Z,0.9
2019-03-16T09:22:58.918Z,4.5
2019-03-16T09:25:58.866Z,4.1
2019-03-16T09:29:00.787Z,4
2019-03-16T09:31:58.946Z,3.6
2019-03-16T09:34:59.571Z,3.3
2019-03-16T09:37:59.825Z,3.1
2019-03-16T09:40:59.138Z,3.7
2019-03-16T09:44:02.443Z,3
2019-03-16T09:46:58.763Z,2.4
2019-03-16T09:49:58.902Z,2.6
2019-03-16T09:52:59.015Z,2.3
2019-03-16T09:55:58.957Z,2.6
2019-03-16T09:58:58.815Z,2.2
2019-03-16T10:01:58.967Z,2.3
2019-03-16T10:04:59.020Z,2.2
2019-03-16T10:07:59.018Z,2.3
2019-03-16T10:10:58.954Z,2.6
2019-03-16T10:13:58.961Z,2.5
2019-03-16T10:16:58.919Z,2.8
2019-03-16T10:19:58.786Z,3.3
2019-03-16T10:22:59.052Z,3.2
2019-03-16T10:25:59.141Z,3.3
2019-03-16T10:28:58.945Z,3
2019-03-16T10:31:59.095Z,2.8
2019-03-16T10:34:59.017Z,2.3
2019-03-16T10:37:59.230Z,1.8
2019-03-16T10:40:58.940Z,1.9
2019-03-16T10:43:58.693Z,1.8
2019-03-16T10:46:59.026Z,1.5
2019-03-16T10:49:58.849Z,1.5
2019-03-16T10:52:58.756Z,1.5
2019-03-16T10:55:59.067Z,1.5
2019-03-16T10:58:58.799Z,1.6
2019-03-16T11:01:58.888Z,1.6
2019-03-16T11:04:58.843Z,1.6
2019-03-16T11:07:58.804Z,1.6
2019-03-16T11:10:58.848Z,1.5
2019-03-16T11:13:58.920Z,1.5
2019-03-16T11:16:58.938Z,1.5
2019-03-16T11:19:59.975Z,1.5
2019-03-16T11:22:59.041Z,1.4
2019-03-16T11:25:58.851Z,1.4
2019-03-16T11:29:09.718Z,3.3
2019-03-16T11:31:58.761Z,2.9
2019-03-16T11:34:59.078Z,2.2
2019-03-16T11:37:58.910Z,2.3
2019-03-16T11:40:59.017Z,2.4
2019-03-16T11:43:58.800Z,2.4
2019-03-16T11:46:58.825Z,2.6
2019-03-16T11:49:58.731Z,2.1
2019-03-16T11:52:59.037Z,2.1
2019-03-16T11:55:58.894Z,2.1
2019-03-16T11:58:58.925Z,2.7
2019-03-16T12:02:06.252Z,2.1
2019-03-16T12:04:58.974Z,2
2019-03-16T12:07:58.893Z,2.1
2019-03-16T12:10:58.771Z,2.8
2019-03-16T12:13:59.308Z,2.7
2019-03-16T12:16:58.918Z,2.6
2019-03-16T12:19:58.946Z,2.3
2019-03-16T12:22:58.863Z,2.1
2019-03-16T12:25:58.923Z,1.9
2019-03-16T12:28:58.890Z,2
2019-03-16T12:31:58.937Z,1.9
2019-03-16T12:34:58.787Z,1.9
2019-03-16T12:37:58.831Z,1.7
2019-03-16T12:40:58.723Z,1.8
2019-03-16T12:43:58.802Z,1.8
2019-03-16T12:46:58.885Z,1.6
2019-03-16T12:49:58.822Z,1.7
2019-03-16T12:52:58.705Z,2
2019-03-16T12:55:59.011Z,2.6
2019-03-16T12:59:11.278Z,2.8
2019-03-16T13:01:58.724Z,4
2019-03-16T13:04:58.718Z,2.8
2019-03-16T13:07:58.844Z,2.1
2019-03-16T13:10:58.904Z,3.4
2019-03-16T13:13:58.782Z,2.9
2019-03-16T13:16:58.844Z,3.3
2019-03-16T13:19:59.465Z,3.4
2019-03-16T13:22:59.082Z,3.8
2019-03-16T13:25:58.880Z,3.5
2019-03-16T13:28:58.634Z,3.9
2019-03-16T13:31:58.745Z,4.7
2019-03-16T13:34:58.793Z,3.9
2019-03-16T13:37:59.658Z,4
2019-03-16T13:40:58.896Z,3
2019-03-16T13:43:58.882Z,2.3
2019-03-16T13:46:59.054Z,2.6
2019-03-16T13:49:59.020Z,2.4
2019-03-16T13:52:59.023Z,2.7
2019-03-16T13:55:58.965Z,2.2
2019-03-16T13:58:58.994Z,1.9
2019-03-16T14:02:01.365Z,2.4
2019-03-16T14:05:01.194Z,2.1
2019-03-16T14:08:01.313Z,2.9
2019-03-16T14:11:01.850Z,2.6
2019-03-16T14:13:58.755Z,2.2
2019-03-16T14:16:58.809Z,2.1
2019-03-16T14:19:58.746Z,2
2019-03-16T14:22:59.060Z,2.1
2019-03-16T14:25:59.466Z,2
2019-03-16T14:28:58.772Z,2.2
2019-03-16T14:31:58.716Z,1.7
2019-03-16T14:35:00.682Z,1.5
2019-03-16T14:37:59.123Z,1.8
2019-03-16T14:40:58.867Z,1.5
2019-03-16T14:43:59.011Z,2
2019-03-16T14:46:58.978Z,3.7
2019-03-16T14:49:58.641Z,2.6
2019-03-16T14:52:58.638Z,2
2019-03-16T14:55:58.729Z,1.6
2019-03-16T14:58:58.896Z,2
2019-03-16T15:01:58.853Z,1.7
2019-03-16T15:04:58.781Z,1.5
2019-03-16T15:07:58.946Z,1.4
2019-03-16T15:10:58.830Z,2.1
2019-03-16T15:13:58.934Z,1.8
2019-03-16T15:16:58.956Z,2.7
2019-03-16T15:19:58.773Z,2
2019-03-16T15:22:58.770Z,1.7
2019-03-16T15:25:58.710Z,1.5
2019-03-16T15:28:59.189Z,2.2
2019-03-16T15:31:58.755Z,2.3
2019-03-16T15:34:58.865Z,1.8
2019-03-16T15:37:59.222Z,1.5
2019-03-16T15:40:58.699Z,1.4
2019-03-16T15:43:58.719Z,1.9
2019-03-16T15:46:58.777Z,1.5
2019-03-16T15:49:59.201Z,1.7
2019-03-16T15:52:58.764Z,1.8
2019-03-16T15:55:58.797Z,1.7
2019-03-16T15:58:58.839Z,1.4
2019-03-16T16:01:58.895Z,1.3
2019-03-16T16:04:58.821Z,1.3
2019-03-16T16:07:58.869Z,1.2
2019-03-16T16:11:02.347Z,1.2
2019-03-16T16:13:58.606Z,1.2
2019-03-16T16:16:58.787Z,1.2
2019-03-16T16:19:59.155Z,1.2
2019-03-16T16:22:58.764Z,1.2
2019-03-16T16:25:58.743Z,1.1
2019-03-16T16:28:58.778Z,1.2
2019-03-16T16:31:58.932Z,1.4
2019-03-16T16:34:58.936Z,1.4
2019-03-16T16:37:58.721Z,1.2
2019-03-16T16:40:58.738Z,1.2
2019-03-16T16:43:58.892Z,1.3
2019-03-16T16:46:58.795Z,1.3
2019-03-16T16:49:58.842Z,1.7
2019-03-16T16:52:59.575Z,1.4
2019-03-16T16:55:58.798Z,1.3
2019-03-16T16:58:58.973Z,1.2
2019-03-16T17:01:58.663Z,1.1
2019-03-16T17:04:58.682Z,1.1
2019-03-16T17:07:58.672Z,1.1
2019-03-16T17:10:58.582Z,1
2019-03-16T17:13:58.715Z,1
2019-03-16T17:16:59.057Z,1
2019-03-16T17:19:58.974Z,1
2019-03-16T17:22:59.105Z,1
2019-03-16T17:25:58.814Z,1
2019-03-16T17:28:58.802Z,2.1
2019-03-16T17:31:58.664Z,1.6
2019-03-16T17:34:58.826Z,1.2
2019-03-16T17:37:58.983Z,1.3
2019-03-16T17:40:58.909Z,1.1
2019-03-16T17:43:58.926Z,1.1
2019-03-16T17:46:58.908Z,1
2019-03-16T17:49:58.828Z,1
2019-03-16T17:52:58.524Z,1
2019-03-16T17:55:58.621Z,1
2019-03-16T17:58:58.729Z,1.2
2019-03-16T18:01:58.731Z,1.1
2019-03-16T18:04:58.874Z,1
2019-03-16T18:07:58.812Z,1
2019-03-16T18:10:58.866Z,0.9
2019-03-16T18:13:58.586Z,0.9
2019-03-16T18:16:58.689Z,0.9
2019-03-16T18:19:58.678Z,1
2019-03-16T18:22:58.863Z,1
2019-03-16T18:25:58.732Z,2.6
2019-03-16T18:28:58.752Z,2.4
2019-03-16T18:32:08.669Z,2.4
2019-03-16T18:34:58.782Z,1.9
2019-03-16T18:37:58.538Z,1.9
2019-03-16T18:40:58.524Z,2.9
2019-03-16T18:43:59.629Z,2.3
2019-03-16T18:46:58.586Z,1.9
2019-03-16T18:49:58.676Z,1.4
2019-03-16T18:52:58.725Z,1.3
2019-03-16T18:55:58.737Z,1.3
2019-03-16T18:58:58.855Z,1.3
2019-03-16T19:01:58.600Z,2.2
2019-03-16T19:04:58.649Z,1.6
2019-03-16T19:07:58.834Z,2.3
2019-03-16T19:10:58.727Z,1.9
2019-03-16T19:13:58.801Z,2.7
2019-03-16T19:16:58.753Z,2
2019-03-16T19:19:58.793Z,1.5
2019-03-16T19:22:59.725Z,1.2
2019-03-16T19:25:58.783Z,1.2
2019-03-16T19:28:58.802Z,1.6
2019-03-16T19:31:58.771Z,2.3
2019-03-16T19:34:58.792Z,2.1
2019-03-16T19:37:58.525Z,1.7
2019-03-16T19:40:59.015Z,1.5
2019-03-16T19:43:58.641Z,1.4
2019-03-16T19:46:58.729Z,1.4
2019-03-16T19:49:58.783Z,1.4
2019-03-16T19:52:58.937Z,1.2
2019-03-16T19:55:58.713Z,1.3
2019-03-16T19:59:01.440Z,1.4
2019-03-16T20:01:58.557Z,1.3
2019-03-16T20:04:58.595Z,1.2
2019-03-16T20:07:58.724Z,1.3
2019-03-16T20:11:07.662Z,1.2
2019-03-16T20:13:58.678Z,1.1
2019-03-16T20:16:58.719Z,1.1
2019-03-16T20:19:58.692Z,2
2019-03-16T20:22:58.751Z,1.7
2019-03-16T20:25:58.509Z,2.3
2019-03-16T20:28:58.538Z,1.8
2019-03-16T20:31:58.644Z,2
2019-03-16T20:34:58.666Z,2.4
2019-03-16T20:37:58.727Z,2
2019-03-16T20:40:58.674Z,2.6
2019-03-16T20:43:59.389Z,2.1
2019-03-16T20:46:58.784Z,2
2019-03-16T20:49:58.696Z,2.1
2019-03-16T20:52:59.248Z,2.1
2019-03-16T20:55:58.631Z,1.9
2019-03-16T20:58:58.575Z,2
2019-03-16T21:01:58.577Z,1.9
2019-03-16T21:04:58.629Z,2.7
2019-03-16T21:07:58.937Z,2.4
2019-03-16T21:10:58.610Z,2.3
2019-03-16T21:13:58.667Z,2.8
2019-03-16T21:16:58.699Z,2.5
2019-03-16T21:19:58.751Z,2.4
2019-03-16T21:22:58.795Z,2.4
2019-03-16T21:25:58.555Z,2.4
2019-03-16T21:28:58.701Z,3.8
2019-03-16T21:31:59.188Z,4
2019-03-16T21:34:58.770Z,3.3
2019-03-16T21:37:58.753Z,3.1
2019-03-16T21:40:58.588Z,2.8
2019-03-16T21:43:58.613Z,2.7
2019-03-16T21:46:58.631Z,2.8
2019-03-16T21:49:58.603Z,2.7
2019-03-16T21:52:58.694Z,2.7
2019-03-16T21:55:58.636Z,2.7
2019-03-16T21:58:59.630Z,2.8
2019-03-16T22:01:58.800Z,2.7
2019-03-16T22:04:58.544Z,3.3
2019-03-16T22:07:58.641Z,3
2019-03-16T22:10:58.640Z,2.9
2019-03-16T22:13:58.778Z,3.3
2019-03-16T22:16:58.786Z,3.1
2019-03-16T22:19:58.777Z,3.5
2019-03-16T22:22:58.832Z,3.2
2019-03-16T22:25:58.615Z,3.3
2019-03-16T22:28:58.550Z,3.4
2019-03-16T22:31:58.603Z,3.3
2019-03-16T22:34:58.666Z,3.4
2019-03-16T22:37:58.742Z,3.4
2019-03-16T22:40:59.014Z,3.2
2019-03-16T22:43:58.783Z,3.2
2019-03-16T22:46:58.752Z,3.3
2019-03-16T22:49:58.466Z,3.2
2019-03-16T22:52:58.642Z,3.2
2019-03-16T22:55:58.656Z,4.4
2019-03-16T22:58:58.720Z,3.9
2019-03-16T23:01:58.766Z,3.5
2019-03-16T23:04:58.732Z,3.4
2019-03-16T23:07:58.483Z,3.3
2019-03-16T23:10:58.531Z,3.3
2019-03-16T23:13:58.642Z,3.3
2019-03-16T23:16:58.717Z,3.3
2019-03-16T23:19:58.809Z,3.3
2019-03-16T23:22:58.878Z,3.3
2019-03-16T23:25:58.704Z,3.3
2019-03-16T23:28:58.872Z,3.2
2019-03-16T23:31:58.615Z,3.2
2019-03-16T23:34:58.756Z,3.2
2019-03-16T23:37:58.700Z,3.2
2019-03-16T23:40:58.732Z,3.3
2019-03-16T23:43:58.774Z,3.4
2019-03-16T23:46:58.563Z,3.4
2019-03-16T23:49:59.072Z,3.4
2019-03-16T23:52:58.688Z,3.3
2019-03-16T23:55:58.650Z,3.2
2019-03-16T23:58:58.764Z,3.3
